createdAt,value
2022-08-30T00:01:44.338Z,12.47
2022-08-30T00:16:44.953Z,12.35
2022-08-30T00:31:46.820Z,12.19
2022-08-30T00:46:47.842Z,11.86
2022-08-30T01:01:49.834Z,11.96
2022-08-30T01:16:50.363Z,11.69
2022-08-30T01:31:52.231Z,11.61
2022-08-30T01:46:52.828Z,11.35
2022-08-30T02:01:54.703Z,11.32
2022-08-30T02:16:55.329Z,11.28
2022-08-30T02:31:57.178Z,11.04
2022-08-30T02:46:57.742Z,11.09
2022-08-30T03:01:59.616Z,11.28
2022-08-30T03:17:00.209Z,11.44
2022-08-30T03:32:02.384Z,11.55
2022-08-30T03:47:02.884Z,11.72
2022-08-30T04:02:04.791Z,12.10
2022-08-30T04:17:05.915Z,12.35
2022-08-30T04:32:07.863Z,12.64
2022-08-30T04:47:08.871Z,13.10
2022-08-30T05:02:14.328Z,13.46
2022-08-30T05:17:15.807Z,13.95
2022-08-30T05:32:17.489Z,14.20
2022-08-30T05:47:17.949Z,14.65
2022-08-30T06:02:19.910Z,15.16
2022-08-30T06:17:20.427Z,15.80
2022-08-30T06:32:22.277Z,16.14
2022-08-30T06:47:22.887Z,16.46
2022-08-30T07:02:23.554Z,16.49
2022-08-30T07:17:24.093Z,16.85
2022-08-30T07:32:25.938Z,16.93
2022-08-30T07:47:26.052Z,16.68
2022-08-30T08:02:27.983Z,16.46
2022-08-30T08:17:28.494Z,16.56
2022-08-30T08:32:29.213Z,16.66
2022-08-30T08:47:29.695Z,17.12
2022-08-30T09:02:34.393Z,17.40
2022-08-30T09:17:35.197Z,17.81
2022-08-30T09:32:37.433Z,18.51
2022-08-30T09:47:37.593Z,19.14
2022-08-30T10:02:39.448Z,19.98
2022-08-30T10:17:40.064Z,21.13
2022-08-30T10:32:41.434Z,22.75
2022-08-30T10:47:42.149Z,24.37
2022-08-30T11:02:44.025Z,24.73
2022-08-30T11:17:44.665Z,24.42
2022-08-30T11:32:46.029Z,24.46
2022-08-30T11:47:46.137Z,24.46
2022-08-30T12:02:48.666Z,24.78
2022-08-30T12:17:50.702Z,25.27
2022-08-30T12:32:52.469Z,24.30
2022-08-30T12:47:52.566Z,24.55
2022-08-30T13:02:54.951Z,23.22
2022-08-30T13:17:55.316Z,22.68
2022-08-30T13:32:56.565Z,22.46
2022-08-30T13:47:58.089Z,22.98
2022-08-30T14:03:00.065Z,22.92
2022-08-30T14:18:01.305Z,23.05
2022-08-30T14:33:01.962Z,23.00
2022-08-30T14:48:02.100Z,23.19
2022-08-30T15:03:07.918Z,22.91
2022-08-30T15:18:09.384Z,23.04
2022-08-30T15:33:10.605Z,23.32
2022-08-30T15:48:11.169Z,23.65
2022-08-30T16:03:12.348Z,23.40
2022-08-30T16:18:14.091Z,22.20
2022-08-30T16:33:14.645Z,21.22
2022-08-30T16:48:14.722Z,20.38
2022-08-30T17:03:16.681Z,19.98
2022-08-30T17:18:17.202Z,19.31
2022-08-30T17:33:20.182Z,18.92
2022-08-30T17:48:21.107Z,18.57
2022-08-30T18:03:22.561Z,18.32
2022-08-30T18:18:25.116Z,17.81
2022-08-30T18:33:28.533Z,17.36
2022-08-30T18:48:28.353Z,16.85
2022-08-30T19:03:33.622Z,16.28
2022-08-30T19:18:33.654Z,15.68
2022-08-30T19:33:37.824Z,15.53
2022-08-30T19:48:42.274Z,15.46
2022-08-30T20:03:44.182Z,15.11
2022-08-30T20:18:44.509Z,14.89
2022-08-30T20:33:46.362Z,14.61
2022-08-30T20:48:47.915Z,14.58
2022-08-30T21:03:49.790Z,14.52
2022-08-30T21:18:50.120Z,14.73
2022-08-30T21:33:52.425Z,14.78
2022-08-30T21:48:53.040Z,14.75
2022-08-30T22:03:54.439Z,14.46
2022-08-30T22:18:54.667Z,14.22
2022-08-30T22:33:54.856Z,14.14
2022-08-30T22:48:55.410Z,13.84
2022-08-30T23:03:56.991Z,13.46
2022-08-30T23:18:57.130Z,13.15
2022-08-30T23:33:57.391Z,12.90
2022-08-30T23:48:57.596Z,12.77
